createdAt,value
2022-10-16T00:00:26.432Z,64.82
2022-10-16T00:05:31.889Z,58.03
2022-10-16T00:10:37.657Z,66.33
2022-10-16T00:15:45.308Z,45.50
2022-10-16T00:20:50.543Z,69.15
2022-10-16T00:25:59.889Z,56.38
2022-10-16T00:31:09.478Z,73.53
2022-10-16T00:36:16.850Z,63.85
2022-10-16T00:41:22.297Z,64.47
2022-10-16T00:46:27.476Z,45.77
2022-10-16T00:51:37.242Z,69.00
2022-10-16T00:56:43.016Z,62.78
2022-10-16T01:01:48.532Z,65.95
2022-10-16T01:07:00.143Z,68.72
2022-10-16T01:12:18.733Z,75.38
2022-10-16T01:17:32.831Z,62.35
2022-10-16T01:22:51.198Z,62.47
2022-10-16T01:27:57.017Z,41.15
2022-10-16T01:33:10.039Z,41.70
2022-10-16T01:38:19.070Z,52.00
2022-10-16T01:43:26.457Z,47.20
2022-10-16T01:48:33.025Z,52.30
2022-10-16T01:53:38.486Z,48.42
2022-10-16T01:58:56.514Z,40.10
2022-10-16T02:04:04.785Z,47.80
2022-10-16T02:09:11.057Z,35.08
2022-10-16T02:14:16.683Z,49.83
2022-10-16T02:19:23.183Z,36.50
2022-10-16T02:24:34.376Z,31.27
2022-10-16T02:29:42.527Z,48.03
2022-10-16T02:34:48.698Z,39.03
2022-10-16T02:44:58.767Z,36.70
2022-10-16T02:50:04.262Z,44.37
2022-10-16T02:55:09.517Z,46.25
2022-10-16T03:00:16.730Z,36.43
2022-10-16T03:10:31.970Z,31.65
2022-10-16T03:15:46.939Z,29.70
2022-10-16T03:20:54.630Z,40.45
2022-10-16T03:26:00.141Z,34.80
2022-10-16T03:31:05.674Z,37.75
2022-10-16T03:36:10.746Z,25.85
2022-10-16T03:41:16.149Z,30.03
2022-10-16T03:46:21.290Z,25.73
2022-10-16T03:51:26.807Z,32.47
2022-10-16T03:56:32.769Z,28.02
2022-10-16T04:01:37.873Z,23.30
2022-10-16T04:06:43.062Z,27.00
2022-10-16T04:11:48.582Z,23.93
2022-10-16T04:16:54.049Z,20.92
2022-10-16T04:21:59.539Z,17.17
2022-10-16T04:27:05.257Z,22.38
2022-10-16T04:37:15.257Z,28.02
2022-10-16T04:42:23.304Z,20.23
2022-10-16T04:47:28.928Z,20.23
2022-10-16T04:57:44.375Z,19.92
2022-10-16T05:02:49.800Z,17.02
2022-10-16T05:07:54.881Z,22.50
2022-10-16T05:13:00.055Z,16.63
2022-10-16T05:18:05.110Z,20.10
2022-10-16T05:28:39.275Z,21.73
2022-10-16T05:33:46.402Z,14.32
2022-10-16T05:38:56.788Z,27.10
2022-10-16T05:44:02.653Z,15.18
2022-10-16T05:49:08.649Z,17.63
2022-10-16T05:54:20.264Z,16.65
2022-10-16T05:59:25.884Z,13.70
2022-10-16T06:04:31.340Z,14.70
2022-10-16T06:09:39.503Z,21.52
2022-10-16T06:14:50.946Z,11.02
2022-10-16T06:19:58.856Z,16.20
2022-10-16T06:25:05.429Z,14.23
2022-10-16T06:30:11.233Z,14.40
2022-10-16T06:40:23.386Z,16.20
2022-10-16T06:45:28.885Z,18.65
2022-10-16T06:50:34.782Z,13.80
2022-10-16T06:55:40.325Z,13.38
2022-10-16T07:00:46.504Z,10.57
2022-10-16T07:05:54.912Z,16.77
2022-10-16T07:11:03.821Z,11.07
2022-10-16T07:16:09.729Z,20.67
2022-10-16T07:21:24.915Z,10.65
2022-10-16T07:26:32.478Z,14.88
2022-10-16T07:31:38.364Z,14.00
2022-10-16T07:36:43.969Z,15.50
2022-10-16T07:41:49.219Z,14.05
2022-10-16T07:46:54.732Z,16.70
2022-10-16T07:57:05.228Z,10.65
2022-10-16T08:02:11.055Z,24.55
2022-10-16T08:07:16.815Z,19.02
2022-10-16T08:12:22.214Z,21.90
2022-10-16T08:17:27.921Z,19.80
2022-10-16T08:22:33.704Z,21.40
2022-10-16T08:27:39.287Z,24.90
2022-10-16T08:32:45.001Z,20.15
2022-10-16T08:37:50.790Z,14.73
2022-10-16T08:43:14.136Z,18.35
2022-10-16T08:48:32.195Z,16.13
2022-10-16T08:53:42.564Z,22.70
2022-10-16T08:58:48.661Z,20.25
2022-10-16T09:04:06.790Z,19.20
2022-10-16T09:09:15.038Z,20.77
2022-10-16T09:14:23.240Z,20.95
2022-10-16T09:19:39.919Z,17.52
2022-10-16T09:24:45.244Z,18.77
2022-10-16T09:29:50.686Z,22.17
2022-10-16T09:34:58.649Z,19.80
2022-10-16T09:40:06.749Z,20.20
2022-10-16T09:45:24.213Z,18.73
2022-10-16T09:50:30.950Z,21.30
2022-10-16T09:55:37.757Z,25.80
2022-10-16T10:00:44.777Z,15.98
2022-10-16T10:05:56.211Z,27.00
2022-10-16T10:11:03.407Z,14.68
2022-10-16T10:16:08.715Z,20.02
2022-10-16T10:21:18.040Z,18.08
2022-10-16T10:26:27.898Z,21.48
2022-10-16T10:31:33.475Z,25.60
2022-10-16T10:36:43.077Z,24.15
2022-10-16T10:41:59.169Z,24.42
2022-10-16T10:47:10.371Z,17.20
2022-10-16T10:52:15.801Z,15.95
2022-10-16T10:57:24.145Z,23.67
2022-10-16T11:02:35.840Z,17.17
2022-10-16T11:07:48.728Z,38.25
2022-10-16T11:13:15.172Z,43.55
2022-10-16T11:18:29.202Z,35.55
2022-10-16T11:23:36.710Z,33.75
2022-10-16T11:28:58.244Z,39.17
2022-10-16T11:39:34.188Z,25.73
2022-10-16T11:45:01.114Z,25.47
2022-10-16T11:50:24.838Z,31.27
2022-10-16T11:55:33.782Z,32.80
2022-10-16T12:00:45.293Z,24.92
2022-10-16T12:06:01.969Z,38.83
2022-10-16T12:11:25.676Z,37.92
2022-10-16T12:16:32.378Z,33.08
2022-10-16T12:21:37.809Z,38.65
2022-10-16T12:26:56.510Z,60.42
2022-10-16T12:32:04.902Z,71.10
2022-10-16T12:37:19.196Z,54.22
2022-10-16T12:42:27.753Z,58.25
2022-10-16T12:47:36.970Z,55.45
2022-10-16T12:52:43.138Z,49.40
2022-10-16T12:57:59.763Z,67.50
2022-10-16T13:03:12.286Z,67.75
2022-10-16T13:08:30.199Z,65.75
2022-10-16T13:13:38.353Z,63.80
2022-10-16T13:18:46.589Z,68.00
2022-10-16T13:24:10.617Z,66.38
2022-10-16T13:29:17.399Z,66.05
2022-10-16T13:34:24.696Z,70.57
2022-10-16T13:39:32.135Z,81.45
2022-10-16T13:44:51.197Z,64.45
2022-10-16T13:50:12.789Z,60.92
2022-10-16T13:55:21.866Z,63.78
2022-10-16T14:00:32.474Z,68.38
2022-10-16T14:05:47.875Z,71.15
2022-10-16T14:11:03.391Z,61.20
2022-10-16T14:16:10.904Z,60.23
2022-10-16T14:21:17.442Z,61.65
2022-10-16T14:26:24.567Z,58.25
2022-10-16T14:36:57.770Z,54.00
2022-10-16T14:42:05.941Z,64.88
2022-10-16T14:47:17.378Z,67.10
2022-10-16T14:52:28.077Z,53.90
2022-10-16T14:57:38.547Z,65.57
2022-10-16T15:02:44.121Z,71.68
2022-10-16T15:07:49.689Z,72.50
2022-10-16T15:12:55.278Z,66.03
2022-10-16T15:18:06.791Z,64.80
2022-10-16T15:23:17.405Z,69.97
2022-10-16T15:28:23.565Z,63.83
2022-10-16T15:33:38.918Z,67.43
2022-10-16T15:44:03.472Z,70.13
2022-10-16T15:49:09.360Z,67.47
2022-10-16T15:54:17.934Z,71.80
2022-10-16T15:59:23.178Z,70.75
2022-10-16T16:04:44.764Z,63.35
2022-10-16T16:09:51.106Z,65.53
2022-10-16T16:14:58.166Z,62.72
2022-10-16T16:20:06.124Z,59.42
2022-10-16T16:25:11.959Z,51.00
2022-10-16T16:35:24.845Z,60.40
2022-10-16T16:40:30.072Z,54.95
2022-10-16T16:45:38.664Z,49.67
2022-10-16T16:50:43.740Z,37.25
2022-10-16T16:55:49.078Z,30.70
2022-10-16T17:00:57.014Z,35.40
2022-10-16T17:06:09.121Z,31.25
2022-10-16T17:11:18.591Z,30.58
2022-10-16T17:16:25.207Z,28.45
2022-10-16T17:21:31.962Z,30.27
2022-10-16T17:26:39.640Z,31.65
2022-10-16T17:31:45.153Z,28.58
2022-10-16T17:36:50.455Z,21.52
2022-10-16T17:41:56.029Z,32.05
2022-10-16T17:47:06.240Z,25.85
2022-10-16T17:52:11.472Z,19.75
2022-10-16T17:57:17.003Z,29.30
2022-10-16T18:02:22.466Z,31.15
2022-10-16T18:07:30.561Z,24.05
2022-10-16T18:12:36.115Z,20.52
2022-10-16T18:17:41.277Z,23.70
2022-10-16T18:22:49.603Z,19.23
2022-10-16T18:27:54.964Z,18.02
2022-10-16T18:33:00.470Z,11.57
2022-10-16T18:38:08.726Z,20.25
2022-10-16T18:43:14.236Z,15.77
2022-10-16T18:48:19.744Z,14.77
2022-10-16T18:53:24.915Z,16.90
2022-10-16T18:58:30.814Z,15.53
2022-10-16T19:03:36.729Z,18.30
2022-10-16T19:08:53.498Z,15.75
2022-10-16T19:13:59.249Z,10.50
2022-10-16T19:19:05.934Z,22.73
2022-10-16T19:24:13.645Z,17.48
2022-10-16T19:29:19.103Z,20.20
2022-10-16T19:34:24.281Z,12.80
2022-10-16T19:39:29.761Z,17.50
2022-10-16T19:44:34.865Z,17.30
2022-10-16T19:49:39.737Z,16.20
2022-10-16T19:54:44.937Z,14.97
2022-10-16T19:59:53.693Z,15.20
2022-10-16T20:04:58.886Z,22.48
2022-10-16T20:10:03.955Z,17.13
2022-10-16T20:15:09.488Z,17.80
2022-10-16T20:20:15.476Z,15.40
2022-10-16T20:25:20.913Z,20.40
2022-10-16T20:30:26.285Z,18.85
2022-10-16T20:35:31.657Z,16.00
2022-10-16T20:40:37.776Z,19.55
2022-10-16T20:45:43.466Z,22.65
2022-10-16T20:50:48.950Z,17.92
2022-10-16T20:55:54.550Z,18.37
2022-10-16T21:01:06.575Z,17.98
2022-10-16T21:06:14.833Z,22.50
2022-10-16T21:11:25.152Z,17.03
2022-10-16T21:16:31.049Z,22.15
2022-10-16T21:26:41.447Z,25.88
2022-10-16T21:31:46.621Z,19.13
2022-10-16T21:36:51.722Z,18.07
2022-10-16T21:41:56.758Z,17.00
2022-10-16T21:47:02.120Z,21.07
2022-10-16T21:52:07.410Z,18.60
2022-10-16T21:57:12.585Z,22.37
2022-10-16T22:02:17.970Z,22.35
2022-10-16T22:07:23.142Z,23.90
2022-10-16T22:12:28.242Z,22.17
2022-10-16T22:17:33.725Z,25.80
2022-10-16T22:22:39.161Z,16.65
2022-10-16T22:27:44.404Z,19.67
2022-10-16T22:32:50.067Z,19.35
2022-10-16T22:37:55.487Z,19.85
2022-10-16T22:43:00.729Z,19.23
2022-10-16T22:48:07.075Z,15.77
2022-10-16T22:53:12.549Z,15.73
2022-10-16T22:58:17.751Z,16.27
2022-10-16T23:03:23.513Z,18.13
2022-10-16T23:08:46.565Z,22.30
2022-10-16T23:13:51.955Z,22.30
2022-10-16T23:18:57.448Z,22.77
2022-10-16T23:24:02.828Z,26.38
2022-10-16T23:29:08.596Z,22.98
2022-10-16T23:39:34.893Z,19.50
2022-10-16T23:44:48.809Z,24.13
2022-10-16T23:49:54.559Z,17.80
